MOOI WEER BOXTEL

Weerstation in Boxtel

Actuele weerinformatie en voorspellingen


Onweer radar Meer informatie blitzortung!


Regen radar Meer informatie rain snow radar


Meer informatie

Template documentation
and downloads

Weblog Hans on Experience

Profiel Hans Mestrum



Het weer levert geen direct gevaar op.    Er zijn geen waarschuwingen afgegeven.

Weather Underground Historische gegevens

Dagelijkse Samenvatting januari 21, 2019 Eenheden:  Metrisch    Engels   Beide
« Vorige Dag
Volgende Dag »
Dagelijkse Wekelijkse Maandelijkse Jaarlijkse Aangepaste
  Huidig: Hoog: Laag: Gemiddeld:
Temperatuur: -15.9 °C -17.8 °C -22.1 °C -20 °C
Dauwpunt: -19.3 °C -17.8 °C -22.5 °C -20.9 °C
Vochtigheid: 64 % Humidity % 63 % 89 %
Wind snelheid: 0 km/h 0 km/h 0 km/h 0.3 km/h
Windvlaag: 2.6 km/h 0 km/h - -
Wind:Calm - - SSW
Luchtdruk: 34577.8 hPa 0 hPa 34577.8 hPa -
Neerslag: 0 mm      
Historical Graphs
 
 
Tabel voor januari 21, 2019
Tijd Temperatuur Dauwpunt Luchtdruk Wind Wind snelheid Windvlaag Vochtigheid Regenval per uur
-17.8 °C -17.8 °C 0 hPa Calm     Humidity % 0 mm
00:04 -20.4 °C -20.8 °C 34635.4 hPa Calm     94 % 0 mm
00:08 -20.4 °C -20.8 °C 34635.4 hPa Calm     94 % 0 mm
00:14 -20.4 °C -21 °C 34635.4 hPa Calm     93 % 0 mm
00:19 -20.6 °C -21.1 °C 34635.4 hPa Calm     93 % 0 mm
00:24 -20.7 °C -21.2 °C 34635.4 hPa Calm     93 % 0 mm
00:29 -20.6 °C -21.1 °C 34635.4 hPa Calm     94 % 0 mm
00:34 -20.6 °C -21.1 °C 34635.4 hPa Calm     94 % 0 mm
00:39 -20.7 °C -21.1 °C 34635.4 hPa Calm     94 % 0 mm
00:44 -20.7 °C -21.2 °C 34635.4 hPa Calm     94 % 0 mm
00:48 -20.7 °C -21.2 °C 34635.4 hPa Calm     94 % 0 mm
00:54 -20.7 °C -21.1 °C 34635.4 hPa Calm     94 % 0 mm
00:59 -20.7 °C -21.1 °C 34635.4 hPa Calm     94 % 0 mm
01:04 -20.7 °C -21.2 °C 34635.4 hPa Calm     94 % 0 mm
01:09 -20.7 °C -21.2 °C 34645.6 hPa Calm     94 % 0 mm
01:14 -20.7 °C -21.1 °C 34645.6 hPa Calm     94 % 0 mm
01:19 -20.8 °C -21.2 °C 34645.6 hPa Calm     94 % 0 mm
01:24 -20.9 °C -21.3 °C 34645.6 hPa Calm     94 % 0 mm
01:29 -20.8 °C -21.2 °C 34645.6 hPa Calm     95 % 0 mm
01:34 -20.9 °C -21.3 °C 34635.4 hPa Calm     95 % 0 mm
01:39 -20.8 °C -21.2 °C 34635.4 hPa Calm     95 % 0 mm
01:43 -20.9 °C -21.3 °C 34645.6 hPa Calm     95 % 0 mm
01:49 -20.9 °C -21.3 °C 34635.4 hPa Calm     95 % 0 mm
01:54 -20.9 °C -21.3 °C 34635.4 hPa Calm     95 % 0 mm
01:59 -21 °C -21.4 °C 34635.4 hPa Calm     94 % 0 mm
02:04 -21.2 °C -21.7 °C 34645.6 hPa Calm     94 % 0 mm
02:09 -21.1 °C -21.5 °C 34645.6 hPa Calm     95 % 0 mm
02:14 -21 °C -21.4 °C 34645.6 hPa Calm     95 % 0 mm
02:19 -21.1 °C -21.4 °C 34645.6 hPa Calm     95 % 0 mm
02:24 -21.2 °C -21.6 °C 34645.6 hPa Calm     95 % 0 mm
02:29 -21.2 °C -21.7 °C 34645.6 hPa Calm     94 % 0 mm
02:34 -21.3 °C -21.7 °C 34645.6 hPa Calm     95 % 0 mm
02:39 -21.2 °C -21.6 °C 34645.6 hPa Calm     95 % 0 mm
02:44 -21.2 °C -21.6 °C 34645.6 hPa Calm     95 % 0 mm
02:49 -21.2 °C -21.6 °C 34645.6 hPa Calm     95 % 0 mm
02:54 -21.2 °C -21.6 °C 34645.6 hPa Calm     95 % 0 mm
02:59 -21.3 °C -21.7 °C 34645.6 hPa Calm     95 % 0 mm
03:04 -21.3 °C -21.7 °C 34645.6 hPa Calm     95 % 0 mm
03:09 -21.3 °C -21.7 °C 34645.6 hPa Calm     95 % 0 mm
03:14 -21.2 °C -21.6 °C 34645.6 hPa Calm     95 % 0 mm
03:19 -21.3 °C -21.7 °C 34645.6 hPa Calm     95 % 0 mm
03:24 -21.2 °C -21.6 °C 34645.6 hPa Calm     95 % 0 mm
03:29 -21.2 °C -21.6 °C 34645.6 hPa Calm     95 % 0 mm
03:34 -21.2 °C -21.6 °C 34645.6 hPa Calm     95 % 0 mm
03:39 -21.3 °C -21.7 °C 34645.6 hPa Calm     95 % 0 mm
03:44 -21.3 °C -21.7 °C 34645.6 hPa Calm     95 % 0 mm
03:49 -21.4 °C -21.8 °C 34645.6 hPa Calm     95 % 0 mm
03:54 -21.5 °C -21.9 °C 34645.6 hPa Calm     95 % 0 mm
03:59 -21.4 °C -21.8 °C 34645.6 hPa Calm     95 % 0 mm
04:04 -21.3 °C -21.7 °C 34645.6 hPa Calm     95 % 0 mm
04:09 -21.4 °C -21.8 °C 34645.6 hPa Calm     95 % 0 mm
04:14 -21.4 °C -21.8 °C 34645.6 hPa Calm     95 % 0 mm
04:19 -21.4 °C -21.8 °C 34645.6 hPa Calm     95 % 0 mm
04:24 -21.4 °C -21.8 °C 34645.6 hPa Calm     95 % 0 mm
04:29 -21.6 °C -21.9 °C 34645.6 hPa Calm     95 % 0 mm
04:34 -21.4 °C -21.8 °C 34645.6 hPa Calm     95 % 0 mm
04:39 -21.4 °C -21.8 °C 34645.6 hPa Calm     95 % 0 mm
04:44 -21.5 °C -21.9 °C 34645.6 hPa Calm     95 % 0 mm
04:49 -21.6 °C -21.9 °C 34635.4 hPa Calm     95 % 0 mm
04:54 -21.6 °C -22 °C 34645.6 hPa Calm     95 % 0 mm
04:59 -21.6 °C -22 °C 34645.6 hPa Calm     95 % 0 mm
05:04 -21.7 °C -22.1 °C 34645.6 hPa Calm     95 % 0 mm
05:09 -21.7 °C -22.1 °C 34645.6 hPa Calm     95 % 0 mm
05:14 -21.7 °C -22.1 °C 34645.6 hPa Calm     95 % 0 mm
05:19 -21.7 °C -22.1 °C 34635.4 hPa Calm     95 % 0 mm
05:24 -21.7 °C -22.1 °C 34645.6 hPa Calm     95 % 0 mm
05:29 -21.7 °C -22.1 °C 34635.4 hPa Calm     95 % 0 mm
05:34 -21.8 °C -22.2 °C 34635.4 hPa Calm     95 % 0 mm
05:39 -21.8 °C -22.2 °C 34635.4 hPa Calm     95 % 0 mm
05:43 -21.9 °C -22.3 °C 34635.4 hPa Calm     95 % 0 mm
05:49 -22 °C -22.4 °C 34635.4 hPa Calm     94 % 0 mm
05:54 -22.1 °C -22.4 °C 34645.6 hPa Calm     95 % 0 mm
05:59 -21.9 °C -22.3 °C 34645.6 hPa Calm     95 % 0 mm
06:04 -21.9 °C -22.3 °C 34635.4 hPa Calm     95 % 0 mm
06:09 -21.8 °C -22.2 °C 34635.4 hPa Calm     95 % 0 mm
06:14 -21.9 °C -22.3 °C 34635.4 hPa Calm     95 % 0 mm
06:19 -21.9 °C -22.3 °C 34635.4 hPa Calm     95 % 0 mm
06:24 -22 °C -22.4 °C 34635.4 hPa Calm     95 % 0 mm
06:29 -22.1 °C -22.4 °C 34635.4 hPa Calm     95 % 0 mm
06:34 -21.9 °C -22.2 °C 34635.4 hPa Calm     96 % 0 mm
06:39 -22 °C -22.4 °C 34635.4 hPa Calm     95 % 0 mm
06:44 -21.9 °C -22.3 °C 34635.4 hPa Calm     95 % 0 mm
06:49 -21.9 °C -22.2 °C 34635.4 hPa Calm     96 % 0 mm
06:54 -22.1 °C -22.4 °C 34635.4 hPa Calm     95 % 0 mm
06:59 -21.9 °C -22.3 °C 34635.4 hPa Calm     95 % 0 mm
07:04 -21.9 °C -22.3 °C 34635.4 hPa Calm     95 % 0 mm
07:09 -21.9 °C -22.2 °C 34635.4 hPa Calm     96 % 0 mm
07:14 -21.8 °C -22.1 °C 34635.4 hPa Calm     96 % 0 mm
07:19 -21.8 °C -22.2 °C 34645.6 hPa Calm     95 % 0 mm
07:24 -21.8 °C -22.2 °C 34645.6 hPa Calm     95 % 0 mm
07:29 -21.9 °C -22.3 °C 34645.6 hPa Calm     95 % 0 mm
07:34 -22 °C -22.4 °C 34645.6 hPa Calm     95 % 0 mm
07:39 -22 °C -22.4 °C 34645.6 hPa Calm     95 % 0 mm
07:44 -22 °C -22.4 °C 34645.6 hPa Calm     95 % 0 mm
07:49 -22 °C -22.4 °C 34645.6 hPa Calm     95 % 0 mm
07:54 -22.1 °C -22.4 °C 34659.1 hPa Calm     95 % 0 mm
07:59 -22.1 °C -22.5 °C 34659.1 hPa Calm     95 % 0 mm
08:04 -22.1 °C -22.5 °C 34659.1 hPa Calm     95 % 0 mm
08:09 -22.1 °C -22.5 °C 34659.1 hPa Calm     95 % 0 mm
08:14 -22.1 °C -22.4 °C 34659.1 hPa Calm     95 % 0 mm
08:19 -22 °C -22.4 °C 34659.1 hPa Calm     95 % 0 mm
08:24 -22 °C -22.4 °C 34659.1 hPa Calm     95 % 0 mm
08:29 -21.9 °C -22.3 °C 34659.1 hPa Calm     95 % 0 mm
08:34 -21.9 °C -22.3 °C 34659.1 hPa Calm     95 % 0 mm
08:39 -21.8 °C -22.2 °C 34659.1 hPa Calm     95 % 0 mm
08:43 -21.8 °C -22.2 °C 34659.1 hPa Calm     95 % 0 mm
08:49 -21.8 °C -22.2 °C 34659.1 hPa Calm     95 % 0 mm
08:54 -21.7 °C -22.1 °C 34659.1 hPa Calm     95 % 0 mm
08:59 -21.7 °C -22.1 °C 34669.3 hPa Calm     95 % 0 mm
09:04 -21.7 °C -22.1 °C 34659.1 hPa Calm     95 % 0 mm
09:09 -21.7 °C -22.1 °C 34669.3 hPa Calm     95 % 0 mm
09:14 -21.6 °C -22 °C 34659.1 hPa Calm     95 % 0 mm
09:19 -21.6 °C -22 °C 34659.1 hPa Calm     95 % 0 mm
09:24 -21.6 °C -21.9 °C 34659.1 hPa Calm     95 % 0 mm
09:29 -21.5 °C -21.9 °C 34659.1 hPa Calm     95 % 0 mm
09:34 -21.4 °C -21.8 °C 34669.3 hPa Calm     95 % 0 mm
09:39 -21.3 °C -21.7 °C 34659.1 hPa Calm     95 % 0 mm
09:44 -21.2 °C -21.6 °C 34659.1 hPa Calm     95 % 0 mm
09:49 -20.9 °C -21.2 °C 34659.1 hPa Calm     96 % 0 mm
09:54 -20.8 °C -21.1 °C 34659.1 hPa Calm     96 % 0 mm
09:59 -20.5 °C -20.8 °C 34659.1 hPa Calm     96 % 0 mm
10:04 -20.4 °C -20.7 °C 34669.3 hPa Calm     96 % 0 mm
10:09 -20.3 °C -20.7 °C 34659.1 hPa Calm     95 % 0 mm
10:14 -20.2 °C -20.6 °C 34669.3 hPa Calm     95 % 0 mm
10:19 -20.1 °C -20.4 °C 34659.1 hPa Calm     95 % 0 mm
10:24 -19.9 °C -20.3 °C 34669.3 hPa Calm     95 % 0 mm
10:29 -19.8 °C -20.2 °C 34659.1 hPa Calm     95 % 0 mm
10:34 -19.6 °C -20.1 °C 34659.1 hPa Calm   2.6 km/h 94 % 0 mm
10:39 -19.5 °C -19.9 °C 34659.1 hPa Calm     94 % 0 mm
10:43 -19.3 °C -19.8 °C 34669.3 hPa Calm     94 % 0 mm
10:49 -19.3 °C -19.8 °C 34659.1 hPa Calm     93 % 0 mm
10:54 -19.2 °C -19.7 °C 34659.1 hPa Calm     93 % 0 mm
10:59 -19.1 °C -19.7 °C 34669.3 hPa Calm     92 % 0 mm
11:04 -19.1 °C -19.7 °C 34669.3 hPa Calm     92 % 0 mm
11:09 -19 °C -19.6 °C 34659.1 hPa Calm     92 % 0 mm
11:13 -18.9 °C -19.6 °C 34659.1 hPa Calm     92 % 0 mm
11:19 -18.8 °C -19.5 °C 34659.1 hPa Calm     91 % 0 mm
11:23 -18.7 °C -19.4 °C 34669.3 hPa Calm     91 % 0 mm
11:28 -18.6 °C -19.3 °C 34659.1 hPa Calm     91 % 0 mm
11:34 -18.4 °C -19.2 °C 34659.1 hPa Calm     90 % 0 mm
11:39 -18.4 °C -19.3 °C 34659.1 hPa Calm   2.6 km/h 89 % 0 mm
11:44 -18.3 °C -19.2 °C 34659.1 hPa Calm     89 % 0 mm
11:48 -18.2 °C -19.2 °C 34659.1 hPa Calm     88 % 0 mm
11:53 -18.1 °C -19.2 °C 34659.1 hPa SSW 2.9 km/h 5.1 km/h 87 % 0 mm
11:58 -18 °C -19.2 °C 34645.6 hPa SSW 2.9 km/h 5.1 km/h 86 % 0 mm
12:03 -17.9 °C -19.1 °C 34645.6 hPa Calm   2.6 km/h 86 % 0 mm
12:08 -17.8 °C -19.1 °C 34645.6 hPa Calm   7.7 km/h 85 % 0 mm
12:13 -17.7 °C -18.9 °C 34645.6 hPa Calm   5.1 km/h 85 % 0 mm
12:18 -17.6 °C -18.9 °C 34645.6 hPa SSE 2.9 km/h 2.6 km/h 84 % 0 mm
12:23 -17.5 °C -18.8 °C 34645.6 hPa Calm     84 % 0 mm
12:28 -17.4 °C -18.8 °C 34635.4 hPa Calm     83 % 0 mm
12:33 -17.3 °C -18.8 °C 34635.4 hPa Calm   2.6 km/h 82 % 0 mm
12:38 -17.2 °C -18.7 °C 34635.4 hPa Calm   2.6 km/h 82 % 0 mm
12:43 -17.2 °C -18.8 °C 34635.4 hPa Calm     81 % 0 mm
12:48 -17.1 °C -18.8 °C 34625.2 hPa Calm     80 % 0 mm
12:53 -17.1 °C -18.8 °C 34625.2 hPa Calm     80 % 0 mm
12:58 -16.9 °C -18.7 °C 34635.4 hPa SSW 2.9 km/h 5.1 km/h 79 % 0 mm
13:04 -16.8 °C -18.7 °C 34625.2 hPa Calm     79 % 0 mm
13:09 -16.8 °C -18.7 °C 34625.2 hPa Calm     78 % 0 mm
13:14 -16.6 °C -18.5 °C 34625.2 hPa WNW 2.9 km/h 5.1 km/h 78 % 0 mm
13:18 -16.6 °C -18.6 °C 34625.2 hPa SW 2.9 km/h 2.6 km/h 77 % 0 mm
13:23 -16.6 °C -18.7 °C 34611.7 hPa SSE 5.1 km/h 5.1 km/h 76 % 0 mm
13:29 -16.5 °C -18.7 °C 34611.7 hPa SSW 2.9 km/h 5.1 km/h 75 % 0 mm
13:34 -16.5 °C -18.8 °C 34611.7 hPa Calm   7.7 km/h 74 % 0 mm
13:39 -16.4 °C -18.8 °C 34611.7 hPa SE 2.9 km/h 2.6 km/h 73 % 0 mm
13:44 -16.3 °C -18.8 °C 34611.7 hPa Calm   2.6 km/h 72 % 0 mm
13:49 -16.3 °C -18.8 °C 34611.7 hPa Calm   5.1 km/h 72 % 0 mm
13:54 -16.2 °C -18.7 °C 34611.7 hPa WSW 2.9 km/h 5.1 km/h 72 % 0 mm
13:59 -16.1 °C -18.7 °C 34611.7 hPa Calm     71 % 0 mm
14:04 -16.1 °C -18.9 °C 34611.7 hPa Calm   2.6 km/h 69 % 0 mm
14:09 -16.1 °C -18.9 °C 34611.7 hPa Calm     69 % 0 mm
14:14 -16.1 °C -18.9 °C 34601.5 hPa Calm     69 % 0 mm
14:18 -16.1 °C -18.9 °C 34601.5 hPa SSE 2.9 km/h 5.1 km/h 69 % 0 mm
14:23 -16 °C -18.8 °C 34601.5 hPa Calm   5.1 km/h 69 % 0 mm
14:28 -16 °C -18.8 °C 34601.5 hPa SSW 5.1 km/h 7.7 km/h 69 % 0 mm
14:34 -15.9 °C -18.7 °C 34591.4 hPa Calm     69 % 0 mm
14:39 -15.9 °C -18.8 °C 34591.4 hPa Calm   2.6 km/h 68 % 0 mm
14:44 -15.9 °C -18.8 °C 34577.8 hPa Calm   2.6 km/h 68 % 0 mm
14:49 -15.8 °C -18.9 °C 34577.8 hPa SW 5.1 km/h 5.1 km/h 67 % 0 mm
14:54 -15.8 °C -19 °C 34577.8 hPa Calm   2.6 km/h 66 % 0 mm
14:58 -15.8 °C -19 °C 34577.8 hPa Calm   2.6 km/h 66 % 0 mm
15:03 -15.8 °C -19 °C 34577.8 hPa SSE 2.9 km/h 2.6 km/h 66 % 0 mm
15:08 -15.7 °C -19.1 °C 34577.8 hPa Calm   2.6 km/h 65 % 0 mm
15:14 -15.6 °C -18.9 °C 34577.8 hPa Calm   2.6 km/h 65 % 0 mm
15:19 -15.6 °C -19 °C 34577.8 hPa South 2.9 km/h 5.1 km/h 64 % 0 mm
15:24 -15.7 °C -19.3 °C 34577.8 hPa Calm   5.1 km/h 63 % 0 mm
15:29 -15.9 °C -19.3 °C 34577.8 hPa Calm   2.6 km/h 64 % 0 mm
Weerstation Boxtel
Gegevens verzameld door Weather Underground - 3.5 mb

Script ontwikkeld door  Jim McMurry - jmcmurry@mwt.net Aangepast voor de template door  Wim van der Kuil - Leuven-Template.eu

U vindt ons ook hier:

Het Weer Aktueel

UK Metoffice

European Weather Network

Weather Underground

Benelux Weer Netwerk

AWEKAS

Citizen Weather Observer Program (CWOP)

HAMweather, WeatherForYou, PWS Weather

Apparatuur in gebruik:

Weerstation
Davis Vue ISS

Weerprogramma
Meteobridge

Weercomputer
Asus WL -330N3G

Webleverancier
Weerhuisje.nl

Davis Vue ISS

Meteobridge

Asus WL -330N3G

Weerhuisje.nl